Campbell Foss — WDC7754 — position and weather

sailwx.info

Track history (hours):
 
Tides and Currents Weather Stations Pressure Air Temp Water Temp Dewpoint Dewpoint Depression Visibility Wind Speed Wind Dir Waves Ship Positions

Campbell Foss

Owner: Foss Maritime Co., Seattle, WA. More information available from US FCC via Universal Licensing System and Coast Guard Vessel Documentation Center.

Last reported at 2015-Apr-19 13:31 UTC. Time now 2015-Apr-19 14:12 UTC.
Position N 33°44' W 118°14'.

Length 23 m; draft 16 m.

Type: Tug. MMSI: 367076360.

Date/timePositionNaut miles runAvg speedWind from/ knotsBaromVisibWave heightAir tempDewpointWater temp
2015-Apr-19 13:31N 33°44' W 118°14'0 0.0
2015-Apr-19 12:33N 33°44' W 118°14'1 0.8
2015-Apr-19 11:06N 33°45' W 118°12'1 1.1
2015-Apr-19 10:33N 33°44' W 118°13'2 2.1
2015-Apr-19 09:23N 33°45' W 118°16'2 2.9
2015-Apr-19 08:32N 33°43' W 118°16'2 1.7
2015-Apr-19 07:23N 33°43' W 118°14'2 2.8
2015-Apr-19 06:33N 33°46' W 118°13'0 0.0
2015-Apr-19 05:33N 33°46' W 118°13'0 0.0
2015-Apr-19 04:31N 33°46' W 118°13'0 0.0
2015-Apr-19 03:33N 33°46' W 118°13'2 2.2
2015-Apr-19 02:33N 33°46' W 118°16'1 1.3
2015-Apr-19 01:33N 33°45' W 118°16'1 0.6
2015-Apr-19 00:33N 33°45' W 118°16'0 0.0
2015-Apr-18 23:33N 33°45' W 118°16'2 1.8
2015-Apr-18 22:32N 33°43' W 118°16'2 1.9
2015-Apr-18 21:33N 33°42' W 118°15'1 0.6
2015-Apr-18 20:33N 33°43' W 118°15'3 3.2
2015-Apr-18 19:33N 33°46' W 118°13'0 0.0
2015-Apr-18 18:33N 33°46' W 118°13'2 1.6
2015-Apr-18 17:33N 33°45' W 118°12'0 0.0
2015-Apr-18 16:33N 33°45' W 118°12'0 0.0
2015-Apr-18 15:33N 33°45' W 118°12'1 1.2
2015-Apr-18 14:33N 33°44' W 118°13'2 2.5
2015-Apr-18 13:33N 33°43' W 118°11'2 1.5
2015-Apr-18 12:33N 33°44' W 118°12'1 0.8
2015-Apr-18 11:33N 33°45' W 118°12'1 0.9
2015-Apr-18 10:33N 33°44' W 118°13'3 2.9
2015-Apr-18 09:33N 33°44' W 118°16'2 1.9
2015-Apr-18 08:18N 33°46' W 118°16'1 0.7
2015-Apr-18 07:33N 33°46' W 118°15'2 1.4
2015-Apr-18 06:22N 33°46' W 118°13'2 1.1
2015-Apr-18 04:29N 33°46' W 118°16'0 0.0
2015-Apr-18 03:33N 33°46' W 118°16'0 0.0
2015-Apr-18 02:14N 33°46' W 118°16'0 0.1
2015-Apr-18 01:33N 33°46' W 118°16'1 0.6
2015-Apr-18 00:34N 33°46' W 118°16'0 0.0
2015-Apr-17 23:33N 33°46' W 118°16'0 0.0
2015-Apr-17 22:34N 33°46' W 118°16'1 0.6
2015-Apr-17 21:33N 33°45' W 118°16'3 2.8
2015-Apr-17 20:34N 33°43' W 118°13'3 0.6
2015-Apr-17 16:11N 33°46' W 118°13'2 3.4
2015-Apr-17 15:29N 33°44' W 118°11'1 0.8
2015-Apr-17 14:24N 33°44' W 118°12'0 0.5
2015-Apr-17 13:34N 33°44' W 118°12'3 0.4
2015-Apr-17 05:13N 33°45' W 118°16'3 4.1
2015-Apr-17 04:30N 33°43' W 118°14'2 0.3
2015-Apr-16 21:09N 33°44' W 118°12'2 3.3
2015-Apr-16 20:33N 33°45' W 118°13'1 0.9
2015-Apr-16 19:34N 33°46' W 118°13'0 0.4
2015-Apr-16 18:31N 33°46' W 118°13'3 0.9
2015-Apr-16 14:33N 33°43' W 118°16'0 0.5
2015-Apr-16 13:33N 33°44' W 118°16'2 1.5
2015-Apr-16 12:32N 33°45' W 118°16'0 0.4
2015-Apr-16 11:34N 33°45' W 118°16'2 1.6
2015-Apr-16 10:33N 33°44' W 118°16'3 2.6
2015-Apr-16 09:34N 33°44' W 118°13'2 2.2
2015-Apr-16 08:33N 33°46' W 118°13'0 0.0
2015-Apr-16 07:34N 33°46' W 118°13'0 0.0
2015-Apr-16 06:34N 33°46' W 118°13'4 1.7
2015-Apr-16 04:03N 33°43' W 118°17'0 0.0
2015-Apr-16 03:33N 33°43' W 118°17'2 1.8
2015-Apr-16 02:33N 33°43' W 118°14'1 1.4
2015-Apr-16 01:34N 33°44' W 118°13'2 1.9
2015-Apr-16 00:33N 33°45' W 118°13'1 1.1
2015-Apr-15 23:34N 33°46' W 118°14'1 1.4
2015-Apr-15 22:33N 33°46' W 118°16'0 0.2
2015-Apr-15 21:34N 33°46' W 118°16'0 0.1
2015-Apr-15 20:33N 33°46' W 118°16'2 1.8
2015-Apr-15 19:33N 33°46' W 118°13'0 0.0
2015-Apr-15 18:33N 33°46' W 118°13'1 0.9
2015-Apr-15 17:33N 33°45' W 118°13'1 0.3
2015-Apr-15 14:28N 33°45' W 118°12'3 2.5
2015-Apr-15 13:22N 33°44' W 118°09'2 2.3
2015-Apr-15 12:21N 33°44' W 118°12'2 0.9
2015-Apr-15 10:18N 33°45' W 118°13'0 0.7
2015-Apr-15 09:33N 33°46' W 118°13'0 0.0
2015-Apr-15 08:33N 33°46' W 118°13'0 0.0
2015-Apr-15 07:33N 33°46' W 118°13'0 0.0
2015-Apr-15 06:33N 33°46' W 118°13'0 0.0
2015-Apr-15 05:33N 33°46' W 118°13'0 0.0
2015-Apr-15 04:33N 33°46' W 118°13'0 0.0
2015-Apr-15 03:30N 33°46' W 118°13'0 0.0
2015-Apr-15 02:33N 33°46' W 118°13'2 0.7
2015-Apr-14 23:31N 33°46' W 118°16'1 0.8
2015-Apr-14 22:31N 33°46' W 118°15'2 1.7
2015-Apr-14 21:33N 33°45' W 118°13'0 0.1
2015-Apr-14 20:26N 33°45' W 118°13'0 0.0
2015-Apr-14 19:28N 33°45' W 118°13'0 0.5
2015-Apr-14 18:33N 33°46' W 118°13'1 0.7
2015-Apr-14 17:33N 33°46' W 118°14'1 1.5
2015-Apr-14 16:33N 33°46' W 118°16'0 0.2
2015-Apr-14 15:33N 33°46' W 118°16'1 1.1
2015-Apr-14 14:33N 33°46' W 118°14'2 2.4
2015-Apr-14 13:33N 33°44' W 118°12'1 1.0
2015-Apr-14 12:33N 33°45' W 118°13'0 0.0
2015-Apr-14 11:33N 33°45' W 118°13'0 0.1
2015-Apr-14 10:33N 33°45' W 118°13'1 0.6
2015-Apr-14 09:33N 33°46' W 118°13'0 0.0
2015-Apr-14 06:31N 33°46' W 118°13'0 0.0
2015-Apr-14 05:33N 33°46' W 118°13'0 0.0
2015-Apr-14 04:17N 33°46' W 118°13'1 1.5
2015-Apr-14 03:33N 33°46' W 118°14'1 1.0
2015-Apr-14 02:32N 33°46' W 118°16'0 0.1
2015-Apr-13 23:30N 33°46' W 118°16'2 2.0
2015-Apr-13 22:16N 33°44' W 118°13'1 1.7
2015-Apr-13 21:32N 33°46' W 118°13'0 0.1
2015-Apr-13 20:32N 33°45' W 118°13'0 0.2
2015-Apr-13 19:31N 33°46' W 118°13'0 0.0
2015-Apr-13 18:32N 33°46' W 118°13'1 0.6
2015-Apr-13 17:32N 33°46' W 118°13'0 0.0
2015-Apr-13 16:32N 33°46' W 118°13'0 0.0
2015-Apr-13 15:33N 33°46' W 118°13'3 1.4
2015-Apr-13 13:26N 33°44' W 118°15'0 0.3
2015-Apr-13 12:14N 33°44' W 118°15'2 0.4
2015-Apr-13 08:33N 33°45' W 118°16'2 2.3
2015-Apr-13 07:28N 33°44' W 118°13'1 1.3
2015-Apr-13 06:31N 33°46' W 118°13'0 0.0
2015-Apr-13 05:33N 33°46' W 118°13'0 0.0
2015-Apr-13 04:33N 33°46' W 118°13'0 0.0
2015-Apr-13 03:32N 33°46' W 118°13'1 1.4
2015-Apr-13 02:32N 33°44' W 118°13'3 3.2
2015-Apr-13 01:33N 33°44' W 118°17'3 3.2
2015-Apr-13 00:33N 33°45' W 118°13'2 1.8
2015-Apr-12 23:33N 33°46' W 118°14'2 2.4
2015-Apr-12 22:33N 33°45' W 118°17'1 0.6
2015-Apr-12 21:33N 33°44' W 118°16'2 2.2
2015-Apr-12 20:33N 33°43' W 118°14'3 2.6
2015-Apr-12 19:33N 33°46' W 118°13'0 0.0
2015-Apr-12 18:34N 33°46' W 118°13'0 0.0
2015-Apr-12 17:17N 33°46' W 118°13'0 0.4
2015-Apr-12 16:33N 33°45' W 118°13'2 1.8
2015-Apr-12 15:28N 33°44' W 118°12'3 3.3
2015-Apr-12 14:33N 33°46' W 118°14'2 2.0
2015-Apr-12 13:33N 33°44' W 118°13'2 1.7
2015-Apr-12 12:31N 33°44' W 118°15'1 0.7
2015-Apr-12 11:12N 33°44' W 118°14'0 0.0
2015-Apr-12 10:30N 33°44' W 118°14'1 1.0
2015-Apr-12 09:22N 33°45' W 118°13'1 0.2
2015-Apr-12 06:24N 33°46' W 118°13'3 3.2
2015-Apr-12 05:24N 33°44' W 118°16'1 0.8
2015-Apr-12 04:27N 33°43' W 118°16'0 0.2
2015-Apr-12 03:17N 33°43' W 118°16'0 0.1
2015-Apr-12 02:22N 33°43' W 118°17'0 0.0
2015-Apr-12 00:07N 33°43' W 118°17'0 0.0
2015-Apr-11 23:33N 33°43' W 118°17'0 0.2
2015-Apr-11 21:26N 33°44' W 118°16'2 2.3
2015-Apr-11 20:33N 33°43' W 118°14'2 2.0
2015-Apr-11 19:32N 33°44' W 118°12'2 1.1
2015-Apr-11 18:06N 33°46' W 118°13'3 4.1
2015-Apr-11 17:25N 33°44' W 118°16'1 1.4
2015-Apr-11 16:33N 33°45' W 118°16'1 0.9
2015-Apr-11 15:32N 33°45' W 118°16'2 1.7
2015-Apr-11 14:25N 33°43' W 118°16'2 1.1
2015-Apr-11 12:15N 33°46' W 118°16'0 0.2
2015-Apr-11 11:33N 33°46' W 118°16'1 0.7
2015-Apr-11 10:34N 33°46' W 118°16'2 2.0
2015-Apr-11 09:33N 33°46' W 118°13'0 0.0
2015-Apr-11 08:33N 33°46' W 118°13'0 0.0
2015-Apr-11 07:33N 33°46' W 118°13'0 0.0
2015-Apr-11 06:33N 33°46' W 118°13'1 1.1
2015-Apr-11 05:33N 33°46' W 118°14'2 1.1
2015-Apr-11 04:07N 33°45' W 118°13'0 0.5
2015-Apr-11 03:33N 33°45' W 118°13'2 2.4
2015-Apr-11 02:33N 33°46' W 118°16'0 0.0
2015-Apr-11 01:05N 33°46' W 118°16'1 2.2
2015-Apr-11 00:33N 33°45' W 118°16'3 2.6
2015-Apr-10 23:33N 33°46' W 118°14'4 2.8
2015-Apr-10 22:15N 33°44' W 118°10'2 1.3
2015-Apr-10 20:29N 33°44' W 118°13'1 1.1
2015-Apr-10 19:12N 33°46' W 118°13'0 0.0
2015-Apr-10 18:21N 33°46' W 118°13'0 0.0
2015-Apr-10 17:29N 33°46' W 118°13'1 0.9
2015-Apr-10 16:33N 33°46' W 118°14'2 1.3
2015-Apr-10 15:16N 33°45' W 118°16'2 2.4
2015-Apr-10 14:33N 33°46' W 118°14'1 0.9
2015-Apr-10 13:33N 33°45' W 118°14'1 0.5
2015-Apr-10 11:33N 33°46' W 118°14'1 1.1
2015-Apr-10 10:33N 33°46' W 118°16'0 0.0
2015-Apr-10 09:32N 33°46' W 118°16'0 0.0
2015-Apr-10 08:33N 33°46' W 118°16'2 2.2
2015-Apr-10 07:33N 33°46' W 118°13'0 0.2
2015-Apr-10 05:33N 33°45' W 118°13'1 0.8
2015-Apr-10 04:30N 33°45' W 118°13'1 1.1
2015-Apr-10 03:33N 33°45' W 118°13'0 0.2
2015-Apr-10 02:32N 33°45' W 118°13'1 1.1
2015-Apr-10 01:33N 33°46' W 118°14'4 2.9
2015-Apr-10 00:18N 33°43' W 118°17'2 1.3
2015-Apr-09 22:24N 33°43' W 118°14'0 0.2
2015-Apr-09 21:33N 33°43' W 118°13'3 2.8
2015-Apr-09 20:33N 33°46' W 118°13'1 0.6
2015-Apr-09 19:33N 33°46' W 118°13'0 0.0
2015-Apr-09 18:33N 33°46' W 118°13'1 1.0
2015-Apr-09 17:33N 33°46' W 118°14'2 2.1
2015-Apr-09 16:33N 33°45' W 118°16'4 3.6
2015-Apr-09 15:33N 33°44' W 118°12'2 1.7
2015-Apr-09 14:33N 33°46' W 118°13'0 0.4
2015-Apr-09 13:33N 33°46' W 118°13'  
Track history (hours):
 
Tides and Currents Weather Stations Pressure Air Temp Water Temp Dewpoint Dewpoint Depression Visibility Wind Speed Wind Dir Waves Ship Positions

Campbell Foss

Owner: Foss Maritime Co., Seattle, WA. More information available from US FCC via Universal Licensing System and Coast Guard Vessel Documentation Center.

Last reported at 2015-Apr-19 13:31 UTC. Time now 2015-Apr-19 14:12 UTC.
Position N 33°44' W 118°14'.

Length 23 m; draft 16 m.

Type: Tug. MMSI: 367076360.

Date/timePositionNaut miles runAvg speedWind from/ knotsBaromVisibWave heightAir tempDewpointWater temp
2015-Apr-19 13:31N 33°44' W 118°14'0 0.0
2015-Apr-19 12:33N 33°44' W 118°14'1 0.8
2015-Apr-19 11:06N 33°45' W 118°12'1 1.1
2015-Apr-19 10:33N 33°44' W 118°13'2 2.1
2015-Apr-19 09:23N 33°45' W 118°16'2 2.9
2015-Apr-19 08:32N 33°43' W 118°16'2 1.7
2015-Apr-19 07:23N 33°43' W 118°14'2 2.8
2015-Apr-19 06:33N 33°46' W 118°13'0 0.0
2015-Apr-19 05:33N 33°46' W 118°13'0 0.0
2015-Apr-19 04:31N 33°46' W 118°13'0 0.0
2015-Apr-19 03:33N 33°46' W 118°13'2 2.2
2015-Apr-19 02:33N 33°46' W 118°16'1 1.3
2015-Apr-19 01:33N 33°45' W 118°16'1 0.6
2015-Apr-19 00:33N 33°45' W 118°16'0 0.0
2015-Apr-18 23:33N 33°45' W 118°16'2 1.8
2015-Apr-18 22:32N 33°43' W 118°16'2 1.9
2015-Apr-18 21:33N 33°42' W 118°15'1 0.6
2015-Apr-18 20:33N 33°43' W 118°15'3 3.2
2015-Apr-18 19:33N 33°46' W 118°13'0 0.0
2015-Apr-18 18:33N 33°46' W 118°13'2 1.6
2015-Apr-18 17:33N 33°45' W 118°12'0 0.0
2015-Apr-18 16:33N 33°45' W 118°12'0 0.0
2015-Apr-18 15:33N 33°45' W 118°12'1 1.2
2015-Apr-18 14:33N 33°44' W 118°13'2 2.5
2015-Apr-18 13:33N 33°43' W 118°11'2 1.5
2015-Apr-18 12:33N 33°44' W 118°12'1 0.8
2015-Apr-18 11:33N 33°45' W 118°12'1 0.9
2015-Apr-18 10:33N 33°44' W 118°13'3 2.9
2015-Apr-18 09:33N 33°44' W 118°16'2 1.9
2015-Apr-18 08:18N 33°46' W 118°16'1 0.7
2015-Apr-18 07:33N 33°46' W 118°15'2 1.4
2015-Apr-18 06:22N 33°46' W 118°13'2 1.1
2015-Apr-18 04:29N 33°46' W 118°16'0 0.0
2015-Apr-18 03:33N 33°46' W 118°16'0 0.0
2015-Apr-18 02:14N 33°46' W 118°16'0 0.1
2015-Apr-18 01:33N 33°46' W 118°16'1 0.6
2015-Apr-18 00:34N 33°46' W 118°16'0 0.0
2015-Apr-17 23:33N 33°46' W 118°16'0 0.0
2015-Apr-17 22:34N 33°46' W 118°16'1 0.6
2015-Apr-17 21:33N 33°45' W 118°16'3 2.8
2015-Apr-17 20:34N 33°43' W 118°13'3 0.6
2015-Apr-17 16:11N 33°46' W 118°13'2 3.4
2015-Apr-17 15:29N 33°44' W 118°11'1 0.8
2015-Apr-17 14:24N 33°44' W 118°12'0 0.5
2015-Apr-17 13:34N 33°44' W 118°12'3 0.4
2015-Apr-17 05:13N 33°45' W 118°16'3 4.1
2015-Apr-17 04:30N 33°43' W 118°14'2 0.3
2015-Apr-16 21:09N 33°44' W 118°12'2 3.3
2015-Apr-16 20:33N 33°45' W 118°13'1 0.9
2015-Apr-16 19:34N 33°46' W 118°13'0 0.4
2015-Apr-16 18:31N 33°46' W 118°13'3 0.9
2015-Apr-16 14:33N 33°43' W 118°16'0 0.5
2015-Apr-16 13:33N 33°44' W 118°16'2 1.5
2015-Apr-16 12:32N 33°45' W 118°16'0 0.4
2015-Apr-16 11:34N 33°45' W 118°16'2 1.6
2015-Apr-16 10:33N 33°44' W 118°16'3 2.6
2015-Apr-16 09:34N 33°44' W 118°13'2 2.2
2015-Apr-16 08:33N 33°46' W 118°13'0 0.0
2015-Apr-16 07:34N 33°46' W 118°13'0 0.0
2015-Apr-16 06:34N 33°46' W 118°13'4 1.7
2015-Apr-16 04:03N 33°43' W 118°17'0 0.0
2015-Apr-16 03:33N 33°43' W 118°17'2 1.8
2015-Apr-16 02:33N 33°43' W 118°14'1 1.4
2015-Apr-16 01:34N 33°44' W 118°13'2 1.9
2015-Apr-16 00:33N 33°45' W 118°13'1 1.1
2015-Apr-15 23:34N 33°46' W 118°14'1 1.4
2015-Apr-15 22:33N 33°46' W 118°16'0 0.2
2015-Apr-15 21:34N 33°46' W 118°16'0 0.1
2015-Apr-15 20:33N 33°46' W 118°16'2 1.8
2015-Apr-15 19:33N 33°46' W 118°13'0 0.0
2015-Apr-15 18:33N 33°46' W 118°13'1 0.9
2015-Apr-15 17:33N 33°45' W 118°13'1 0.3
2015-Apr-15 14:28N 33°45' W 118°12'3 2.5
2015-Apr-15 13:22N 33°44' W 118°09'2 2.3
2015-Apr-15 12:21N 33°44' W 118°12'2 0.9
2015-Apr-15 10:18N 33°45' W 118°13'0 0.7
2015-Apr-15 09:33N 33°46' W 118°13'0 0.0
2015-Apr-15 08:33N 33°46' W 118°13'0 0.0
2015-Apr-15 07:33N 33°46' W 118°13'0 0.0
2015-Apr-15 06:33N 33°46' W 118°13'0 0.0
2015-Apr-15 05:33N 33°46' W 118°13'0 0.0
2015-Apr-15 04:33N 33°46' W 118°13'0 0.0
2015-Apr-15 03:30N 33°46' W 118°13'0 0.0
2015-Apr-15 02:33N 33°46' W 118°13'2 0.7
2015-Apr-14 23:31N 33°46' W 118°16'1 0.8
2015-Apr-14 22:31N 33°46' W 118°15'2 1.7
2015-Apr-14 21:33N 33°45' W 118°13'0 0.1
2015-Apr-14 20:26N 33°45' W 118°13'0 0.0
2015-Apr-14 19:28N 33°45' W 118°13'0 0.5
2015-Apr-14 18:33N 33°46' W 118°13'1 0.7
2015-Apr-14 17:33N 33°46' W 118°14'1 1.5
2015-Apr-14 16:33N 33°46' W 118°16'0 0.2
2015-Apr-14 15:33N 33°46' W 118°16'1 1.1
2015-Apr-14 14:33N 33°46' W 118°14'2 2.4
2015-Apr-14 13:33N 33°44' W 118°12'1 1.0
2015-Apr-14 12:33N 33°45' W 118°13'0 0.0
2015-Apr-14 11:33N 33°45' W 118°13'0 0.1
2015-Apr-14 10:33N 33°45' W 118°13'1 0.6
2015-Apr-14 09:33N 33°46' W 118°13'0 0.0
2015-Apr-14 06:31N 33°46' W 118°13'0 0.0
2015-Apr-14 05:33N 33°46' W 118°13'0 0.0
2015-Apr-14 04:17N 33°46' W 118°13'1 1.5
2015-Apr-14 03:33N 33°46' W 118°14'1 1.0
2015-Apr-14 02:32N 33°46' W 118°16'0 0.1
2015-Apr-13 23:30N 33°46' W 118°16'2 2.0
2015-Apr-13 22:16N 33°44' W 118°13'1 1.7
2015-Apr-13 21:32N 33°46' W 118°13'0 0.1
2015-Apr-13 20:32N 33°45' W 118°13'0 0.2
2015-Apr-13 19:31N 33°46' W 118°13'0 0.0
2015-Apr-13 18:32N 33°46' W 118°13'1 0.6
2015-Apr-13 17:32N 33°46' W 118°13'0 0.0
2015-Apr-13 16:32N 33°46' W 118°13'0 0.0
2015-Apr-13 15:33N 33°46' W 118°13'3 1.4
2015-Apr-13 13:26N 33°44' W 118°15'0 0.3
2015-Apr-13 12:14N 33°44' W 118°15'2 0.4
2015-Apr-13 08:33N 33°45' W 118°16'2 2.3
2015-Apr-13 07:28N 33°44' W 118°13'1 1.3
2015-Apr-13 06:31N 33°46' W 118°13'0 0.0
2015-Apr-13 05:33N 33°46' W 118°13'0 0.0
2015-Apr-13 04:33N 33°46' W 118°13'0 0.0
2015-Apr-13 03:32N 33°46' W 118°13'1 1.4
2015-Apr-13 02:32N 33°44' W 118°13'3 3.2
2015-Apr-13 01:33N 33°44' W 118°17'3 3.2
2015-Apr-13 00:33N 33°45' W 118°13'2 1.8
2015-Apr-12 23:33N 33°46' W 118°14'2 2.4
2015-Apr-12 22:33N 33°45' W 118°17'1 0.6
2015-Apr-12 21:33N 33°44' W 118°16'2 2.2
2015-Apr-12 20:33N 33°43' W 118°14'3 2.6
2015-Apr-12 19:33N 33°46' W 118°13'0 0.0
2015-Apr-12 18:34N 33°46' W 118°13'0 0.0
2015-Apr-12 17:17N 33°46' W 118°13'0 0.4
2015-Apr-12 16:33N 33°45' W 118°13'2 1.8
2015-Apr-12 15:28N 33°44' W 118°12'3 3.3
2015-Apr-12 14:33N 33°46' W 118°14'2 2.0
2015-Apr-12 13:33N 33°44' W 118°13'2 1.7
2015-Apr-12 12:31N 33°44' W 118°15'1 0.7
2015-Apr-12 11:12N 33°44' W 118°14'0 0.0
2015-Apr-12 10:30N 33°44' W 118°14'1 1.0
2015-Apr-12 09:22N 33°45' W 118°13'1 0.2
2015-Apr-12 06:24N 33°46' W 118°13'3 3.2
2015-Apr-12 05:24N 33°44' W 118°16'1 0.8
2015-Apr-12 04:27N 33°43' W 118°16'0 0.2
2015-Apr-12 03:17N 33°43' W 118°16'0 0.1
2015-Apr-12 02:22N 33°43' W 118°17'0 0.0
2015-Apr-12 00:07N 33°43' W 118°17'0 0.0
2015-Apr-11 23:33N 33°43' W 118°17'0 0.2
2015-Apr-11 21:26N 33°44' W 118°16'2 2.3
2015-Apr-11 20:33N 33°43' W 118°14'2 2.0
2015-Apr-11 19:32N 33°44' W 118°12'2 1.1
2015-Apr-11 18:06N 33°46' W 118°13'3 4.1
2015-Apr-11 17:25N 33°44' W 118°16'1 1.4
2015-Apr-11 16:33N 33°45' W 118°16'1 0.9
2015-Apr-11 15:32N 33°45' W 118°16'2 1.7
2015-Apr-11 14:25N 33°43' W 118°16'2 1.1
2015-Apr-11 12:15N 33°46' W 118°16'0 0.2
2015-Apr-11 11:33N 33°46' W 118°16'1 0.7
2015-Apr-11 10:34N 33°46' W 118°16'2 2.0
2015-Apr-11 09:33N 33°46' W 118°13'0 0.0
2015-Apr-11 08:33N 33°46' W 118°13'0 0.0
2015-Apr-11 07:33N 33°46' W 118°13'0 0.0
2015-Apr-11 06:33N 33°46' W 118°13'1 1.1
2015-Apr-11 05:33N 33°46' W 118°14'2 1.1
2015-Apr-11 04:07N 33°45' W 118°13'0 0.5
2015-Apr-11 03:33N 33°45' W 118°13'2 2.4
2015-Apr-11 02:33N 33°46' W 118°16'0 0.0
2015-Apr-11 01:05N 33°46' W 118°16'1 2.2
2015-Apr-11 00:33N 33°45' W 118°16'3 2.6
2015-Apr-10 23:33N 33°46' W 118°14'4 2.8
2015-Apr-10 22:15N 33°44' W 118°10'2 1.3
2015-Apr-10 20:29N 33°44' W 118°13'1 1.1
2015-Apr-10 19:12N 33°46' W 118°13'0 0.0
2015-Apr-10 18:21N 33°46' W 118°13'0 0.0
2015-Apr-10 17:29N 33°46' W 118°13'1 0.9
2015-Apr-10 16:33N 33°46' W 118°14'2 1.3
2015-Apr-10 15:16N 33°45' W 118°16'2 2.4
2015-Apr-10 14:33N 33°46' W 118°14'1 0.9
2015-Apr-10 13:33N 33°45' W 118°14'1 0.5
2015-Apr-10 11:33N 33°46' W 118°14'1 1.1
2015-Apr-10 10:33N 33°46' W 118°16'0 0.0
2015-Apr-10 09:32N 33°46' W 118°16'0 0.0
2015-Apr-10 08:33N 33°46' W 118°16'2 2.2
2015-Apr-10 07:33N 33°46' W 118°13'0 0.2
2015-Apr-10 05:33N 33°45' W 118°13'1 0.8
2015-Apr-10 04:30N 33°45' W 118°13'1 1.1
2015-Apr-10 03:33N 33°45' W 118°13'0 0.2
2015-Apr-10 02:32N 33°45' W 118°13'1 1.1
2015-Apr-10 01:33N 33°46' W 118°14'4 2.9
2015-Apr-10 00:18N 33°43' W 118°17'2 1.3
2015-Apr-09 22:24N 33°43' W 118°14'0 0.2
2015-Apr-09 21:33N 33°43' W 118°13'3 2.8
2015-Apr-09 20:33N 33°46' W 118°13'1 0.6
2015-Apr-09 19:33N 33°46' W 118°13'0 0.0
2015-Apr-09 18:33N 33°46' W 118°13'1 1.0
2015-Apr-09 17:33N 33°46' W 118°14'2 2.1
2015-Apr-09 16:33N 33°45' W 118°16'4 3.6
2015-Apr-09 15:33N 33°44' W 118°12'2 1.7
2015-Apr-09 14:33N 33°46' W 118°13'0 0.4
2015-Apr-09 13:33N 33°46' W 118°13'  

Dump ship's entire track history